createdAt,value
2023-05-19T00:01:37.778Z,5.10
2023-05-19T00:04:07.183Z,5.27
2023-05-19T00:06:37.264Z,7.23
2023-05-19T00:09:07.081Z,5.60
2023-05-19T00:11:36.324Z,6.57
2023-05-19T00:14:06.046Z,4.97
2023-05-19T00:16:34.841Z,4.63
2023-05-19T00:19:05.449Z,4.50
2023-05-19T00:21:33.997Z,5.17
2023-05-19T00:24:03.546Z,5.00
2023-05-19T00:26:31.586Z,5.83
2023-05-19T00:28:59.627Z,4.80
2023-05-19T00:31:27.615Z,4.43
2023-05-19T00:33:55.618Z,5.83
2023-05-19T00:36:23.834Z,9.57
2023-05-19T00:38:52.356Z,6.00
2023-05-19T00:41:22.795Z,8.57
2023-05-19T00:43:52.054Z,6.47
2023-05-19T00:46:20.433Z,7.63
2023-05-19T00:48:48.465Z,6.70
2023-05-19T00:51:17.314Z,8.20
2023-05-19T00:53:49.472Z,11.87
2023-05-19T00:56:18.444Z,8.03
2023-05-19T00:58:52.326Z,9.63
2023-05-19T01:01:21.819Z,6.50
2023-05-19T01:03:50.434Z,5.73
2023-05-19T01:06:19.379Z,5.07
2023-05-19T01:08:47.619Z,8.47
2023-05-19T01:11:15.566Z,6.87
2023-05-19T01:13:43.952Z,8.10
2023-05-19T01:16:18.899Z,6.07
2023-05-19T01:18:56.523Z,7.73
2023-05-19T01:22:01.174Z,5.17
2023-05-19T01:25:08.687Z,7.67
2023-05-19T01:27:48.281Z,4.00
2023-05-19T01:30:30.101Z,5.10
2023-05-19T01:33:02.092Z,6.77
2023-05-19T01:35:30.838Z,8.53
2023-05-19T01:38:00.200Z,5.27
2023-05-19T01:40:29.484Z,5.90
2023-05-19T01:42:59.841Z,5.63
2023-05-19T01:45:31.040Z,4.47
2023-05-19T01:48:01.775Z,7.30
2023-05-19T01:50:30.371Z,3.63
2023-05-19T01:52:59.992Z,4.90
2023-05-19T01:55:28.652Z,5.17
2023-05-19T01:58:05.365Z,9.00
2023-05-19T02:00:46.401Z,9.00
2023-05-19T02:03:30.837Z,8.13
2023-05-19T02:06:11.363Z,4.93
2023-05-19T02:08:45.570Z,5.37
2023-05-19T02:11:19.243Z,8.40
2023-05-19T02:13:51.423Z,5.37
2023-05-19T02:16:23.128Z,7.80
2023-05-19T02:18:54.086Z,4.83
2023-05-19T02:21:22.206Z,6.40
2023-05-19T02:23:50.631Z,8.37
2023-05-19T02:26:18.882Z,9.20
2023-05-19T02:28:47.006Z,7.30
2023-05-19T02:31:15.120Z,6.13
2023-05-19T02:33:44.453Z,6.73
2023-05-19T02:36:14.559Z,4.43
2023-05-19T02:38:42.484Z,5.63
2023-05-19T02:41:10.835Z,8.10
2023-05-19T02:43:38.820Z,7.87
2023-05-19T02:46:07.177Z,4.57
2023-05-19T02:48:35.149Z,7.33
2023-05-19T02:51:05.029Z,8.33
2023-05-19T02:53:33.620Z,10.23
2023-05-19T02:56:01.655Z,5.40
2023-05-19T02:58:29.733Z,5.60
2023-05-19T03:00:57.698Z,7.00
2023-05-19T03:03:26.070Z,6.40
2023-05-19T03:05:54.723Z,7.97
2023-05-19T03:08:24.183Z,8.97
2023-05-19T03:10:52.164Z,6.00
2023-05-19T03:13:20.084Z,7.40
2023-05-19T03:15:48.917Z,6.00
2023-05-19T03:18:17.117Z,5.20
2023-05-19T03:20:45.646Z,5.43
2023-05-19T03:23:13.636Z,8.00
2023-05-19T03:25:43.123Z,5.57
2023-05-19T03:28:11.176Z,5.73
2023-05-19T03:30:39.172Z,9.93
2023-05-19T03:33:07.271Z,6.43
2023-05-19T03:35:35.899Z,7.40
2023-05-19T03:38:03.892Z,6.27
2023-05-19T03:40:32.192Z,10.63
2023-05-19T03:43:02.179Z,5.87
2023-05-19T03:45:30.182Z,7.00
2023-05-19T03:47:58.372Z,7.87
2023-05-19T03:50:27.398Z,8.47
2023-05-19T03:52:55.480Z,5.77
2023-05-19T03:55:23.471Z,4.57
2023-05-19T03:57:52.733Z,5.53
2023-05-19T04:00:22.186Z,12.30
2023-05-19T04:02:50.377Z,7.23
2023-05-19T04:05:18.653Z,5.50
2023-05-19T04:07:47.345Z,6.50
2023-05-19T04:10:15.623Z,6.23
2023-05-19T04:12:47.805Z,5.83
2023-05-19T04:15:17.705Z,9.97
2023-05-19T04:17:47.383Z,10.57
2023-05-19T04:20:15.765Z,6.00
2023-05-19T04:22:43.858Z,9.20
2023-05-19T04:25:12.064Z,7.77
2023-05-19T04:27:40.084Z,8.20
2023-05-19T04:30:09.488Z,8.30
2023-05-19T04:32:37.824Z,11.07
2023-05-19T04:35:07.859Z,8.97
2023-05-19T04:37:37.447Z,9.10
2023-05-19T04:40:09.429Z,7.07
2023-05-19T04:42:37.563Z,6.27
2023-05-19T04:45:08.843Z,9.87
2023-05-19T04:47:38.188Z,8.23
2023-05-19T04:50:10.419Z,7.63
2023-05-19T04:52:38.787Z,8.57
2023-05-19T04:55:08.695Z,7.13
2023-05-19T04:57:37.644Z,12.93
2023-05-19T05:00:09.503Z,12.97
2023-05-19T05:02:38.439Z,8.87
2023-05-19T05:05:10.543Z,10.10
2023-05-19T05:07:38.539Z,7.73
2023-05-19T05:10:08.209Z,7.57
2023-05-19T05:12:36.955Z,13.00
2023-05-19T05:15:06.990Z,11.87
2023-05-19T05:17:35.799Z,9.40
2023-05-19T05:20:04.677Z,8.73
2023-05-19T05:22:34.777Z,8.70
2023-05-19T05:25:03.475Z,8.23
2023-05-19T05:27:31.446Z,9.13
2023-05-19T05:29:59.556Z,8.93
2023-05-19T05:32:27.937Z,9.37
2023-05-19T05:34:56.188Z,7.67
2023-05-19T05:37:24.741Z,7.80
2023-05-19T05:39:54.658Z,9.43
2023-05-19T05:42:22.827Z,11.40
2023-05-19T05:44:51.054Z,10.13
2023-05-19T05:47:19.619Z,11.40
2023-05-19T05:49:48.811Z,8.30
2023-05-19T05:52:18.283Z,6.87
2023-05-19T05:54:49.615Z,8.33
2023-05-19T05:57:19.635Z,9.77
2023-05-19T05:59:47.907Z,10.97
2023-05-19T06:02:16.518Z,8.30
2023-05-19T06:04:45.488Z,10.83
2023-05-19T06:07:13.504Z,5.40
2023-05-19T06:09:41.614Z,6.47
2023-05-19T06:12:12.750Z,4.47
2023-05-19T06:14:43.576Z,7.47
2023-05-19T06:17:11.897Z,6.17
2023-05-19T06:19:40.282Z,7.83
2023-05-19T06:22:09.003Z,6.97
2023-05-19T06:24:39.346Z,6.07
2023-05-19T06:27:07.706Z,7.50
2023-05-19T06:29:35.877Z,5.17
2023-05-19T06:32:06.416Z,6.13
2023-05-19T06:34:34.670Z,9.07
2023-05-19T06:37:05.227Z,4.83
2023-05-19T06:39:33.236Z,6.33
2023-05-19T06:42:01.460Z,7.03
2023-05-19T06:44:29.500Z,6.77
2023-05-19T06:46:57.718Z,6.10
2023-05-19T06:49:29.467Z,5.60
2023-05-19T06:51:57.496Z,6.87
2023-05-19T06:54:25.623Z,10.77
2023-05-19T06:56:55.856Z,6.40
2023-05-19T06:59:23.910Z,7.00
2023-05-19T07:01:52.033Z,5.47
2023-05-19T07:04:20.042Z,7.90
2023-05-19T07:06:50.390Z,10.07
2023-05-19T07:09:18.314Z,5.30
2023-05-19T07:11:46.830Z,9.00
2023-05-19T07:14:14.724Z,8.10
2023-05-19T07:16:42.819Z,6.83
2023-05-19T07:19:11.050Z,7.17
2023-05-19T07:21:39.649Z,5.80
2023-05-19T07:24:09.334Z,5.17
2023-05-19T07:26:37.196Z,6.33
2023-05-19T07:29:05.571Z,6.73
2023-05-19T07:31:33.388Z,5.47
2023-05-19T07:34:01.334Z,5.47
2023-05-19T07:36:29.121Z,6.50
2023-05-19T07:38:57.172Z,5.23
2023-05-19T07:41:26.694Z,5.33
2023-05-19T07:43:54.543Z,4.70
2023-05-19T07:46:23.110Z,5.80
2023-05-19T07:48:51.103Z,4.13
2023-05-19T07:51:19.386Z,6.70
2023-05-19T07:53:47.881Z,7.67
2023-05-19T07:56:15.829Z,8.17
2023-05-19T07:58:45.117Z,4.23
2023-05-19T08:01:13.054Z,10.63
2023-05-19T08:03:41.087Z,13.13
2023-05-19T08:06:08.908Z,4.17
2023-05-19T08:08:36.887Z,8.53
2023-05-19T08:11:05.268Z,5.13
2023-05-19T08:13:34.702Z,6.13
2023-05-19T08:16:03.965Z,6.97
2023-05-19T08:18:31.955Z,6.77
2023-05-19T08:20:59.995Z,13.07
2023-05-19T08:23:27.805Z,21.77
2023-05-19T08:25:55.780Z,8.70
2023-05-19T08:28:23.589Z,11.77
2023-05-19T08:30:52.491Z,10.87
2023-05-19T08:33:22.962Z,5.40
2023-05-19T08:35:51.176Z,6.27
2023-05-19T08:38:19.023Z,10.63
2023-05-19T08:40:48.384Z,13.33
2023-05-19T08:43:16.645Z,8.83
2023-05-19T08:45:46.829Z,4.33
2023-05-19T08:48:21.429Z,7.43
2023-05-19T08:50:58.091Z,6.63
2023-05-19T08:53:33.088Z,7.10
2023-05-19T08:56:10.173Z,6.30
2023-05-19T08:58:40.445Z,6.03
2023-05-19T09:01:08.788Z,5.53
2023-05-19T09:03:39.559Z,6.40
2023-05-19T09:06:08.909Z,5.93
2023-05-19T09:08:37.231Z,5.87
2023-05-19T09:11:05.540Z,7.77
2023-05-19T09:13:33.548Z,6.80
2023-05-19T09:16:02.063Z,2.77
2023-05-19T09:18:31.249Z,9.70
2023-05-19T09:21:02.838Z,5.80
2023-05-19T09:23:33.660Z,4.70
2023-05-19T09:26:05.055Z,5.10
2023-05-19T09:28:35.257Z,5.50
2023-05-19T09:31:10.532Z,4.37
2023-05-19T09:33:42.130Z,5.60
2023-05-19T09:36:13.170Z,3.77
2023-05-19T09:38:41.372Z,4.80
2023-05-19T09:41:10.218Z,4.87
2023-05-19T09:43:38.149Z,3.40
2023-05-19T09:46:07.367Z,5.83
2023-05-19T09:48:36.822Z,5.13
2023-05-19T09:51:09.658Z,5.83
2023-05-19T09:53:39.555Z,5.37
2023-05-19T09:56:10.514Z,2.63
2023-05-19T09:58:39.080Z,4.17
2023-05-19T10:01:08.256Z,4.87
2023-05-19T10:03:37.457Z,4.90
2023-05-19T10:06:07.394Z,5.37
2023-05-19T10:08:35.951Z,3.20
2023-05-19T10:11:06.559Z,3.13
2023-05-19T10:13:40.097Z,3.27
2023-05-19T10:16:09.859Z,4.93
2023-05-19T10:18:40.087Z,3.60
2023-05-19T10:21:09.509Z,3.10
2023-05-19T10:23:37.479Z,3.37
2023-05-19T10:26:07.788Z,3.67
2023-05-19T10:28:41.630Z,6.80
2023-05-19T10:31:14.615Z,2.17
2023-05-19T10:34:07.076Z,2.33
2023-05-19T10:36:45.733Z,1.70
2023-05-19T10:39:19.155Z,2.73
2023-05-19T10:42:02.334Z,3.07
2023-05-19T10:44:55.464Z,4.20
2023-05-19T10:47:26.867Z,1.30
2023-05-19T10:49:55.790Z,4.20
2023-05-19T10:52:26.109Z,4.03
2023-05-19T10:54:55.115Z,2.07
2023-05-19T10:57:30.700Z,2.00
2023-05-19T11:00:00.627Z,2.03
2023-05-19T11:02:42.025Z,2.53
2023-05-19T11:05:11.532Z,2.40
2023-05-19T11:07:43.376Z,2.07
2023-05-19T11:10:12.066Z,3.80
2023-05-19T11:12:46.808Z,4.23
2023-05-19T11:15:16.683Z,1.77
2023-05-19T11:17:49.397Z,1.50
2023-05-19T11:20:25.019Z,1.77
2023-05-19T11:23:05.746Z,4.03
2023-05-19T11:25:47.922Z,6.60
2023-05-19T11:28:20.272Z,9.30
2023-05-19T11:30:50.622Z,4.63
2023-05-19T11:33:19.848Z,2.20
2023-05-19T11:35:49.475Z,1.83
2023-05-19T11:38:20.461Z,2.23
2023-05-19T11:40:50.130Z,1.67
2023-05-19T11:43:19.398Z,3.87
2023-05-19T11:45:47.422Z,2.60
2023-05-19T11:48:17.402Z,1.20
2023-05-19T11:50:48.645Z,3.27
2023-05-19T11:53:17.460Z,3.70
2023-05-19T11:55:47.487Z,3.60
2023-05-19T11:58:16.510Z,2.50
2023-05-19T12:00:47.689Z,2.80
2023-05-19T12:03:17.514Z,3.17
2023-05-19T12:05:47.838Z,2.40
2023-05-19T12:08:18.254Z,2.00
2023-05-19T12:10:49.595Z,2.53
2023-05-19T12:13:17.749Z,2.97
2023-05-19T12:15:47.275Z,3.50
2023-05-19T12:18:15.223Z,3.27
2023-05-19T12:20:43.154Z,3.23
2023-05-19T12:23:11.298Z,1.27
2023-05-19T12:25:39.448Z,2.30
2023-05-19T12:28:08.326Z,1.80
2023-05-19T12:30:36.851Z,3.70
2023-05-19T12:33:06.422Z,2.37
2023-05-19T12:35:34.396Z,2.43
2023-05-19T12:38:05.837Z,2.47
2023-05-19T12:40:35.782Z,1.80
2023-05-19T12:43:04.594Z,3.37
2023-05-19T12:45:36.184Z,3.00
2023-05-19T12:48:07.180Z,2.50
2023-05-19T12:50:35.492Z,3.80
2023-05-19T12:53:03.590Z,4.03
2023-05-19T12:55:31.454Z,2.50
2023-05-19T12:57:59.526Z,3.13
2023-05-19T13:00:28.934Z,2.30
2023-05-19T13:03:00.329Z,1.40
2023-05-19T13:05:31.256Z,2.10
2023-05-19T13:08:00.464Z,1.50
2023-05-19T13:10:29.486Z,1.30
2023-05-19T13:12:58.942Z,2.23
2023-05-19T13:15:28.084Z,1.10
2023-05-19T13:17:56.220Z,2.80
2023-05-19T13:20:26.907Z,3.33
2023-05-19T13:22:58.083Z,6.47
2023-05-19T13:25:26.570Z,1.20
2023-05-19T13:27:55.485Z,6.50
2023-05-19T13:30:23.809Z,2.37
2023-05-19T13:32:52.526Z,2.63
2023-05-19T13:35:21.544Z,5.20
2023-05-19T13:37:50.857Z,5.50
2023-05-19T13:40:20.515Z,2.60
2023-05-19T13:42:48.471Z,2.80
2023-05-19T13:45:16.412Z,1.50
2023-05-19T13:47:44.286Z,5.17
2023-05-19T13:50:12.662Z,1.57
2023-05-19T13:52:40.714Z,3.57
2023-05-19T13:55:09.396Z,3.33
2023-05-19T13:57:38.620Z,3.10
2023-05-19T14:00:07.947Z,1.40
2023-05-19T14:02:36.253Z,2.07
2023-05-19T14:05:04.358Z,1.00
2023-05-19T14:07:35.701Z,2.50
2023-05-19T14:10:05.759Z,2.77
2023-05-19T14:12:46.993Z,1.77
2023-05-19T14:15:21.402Z,2.77
2023-05-19T14:17:50.549Z,2.30
2023-05-19T14:20:18.532Z,0.80
2023-05-19T14:22:46.357Z,2.17
2023-05-19T14:25:14.117Z,2.37
2023-05-19T14:27:44.485Z,3.20
2023-05-19T14:30:12.846Z,2.83
2023-05-19T14:32:42.141Z,2.13
2023-05-19T14:35:10.658Z,1.30
2023-05-19T14:37:38.538Z,2.23
2023-05-19T14:40:07.529Z,1.93
2023-05-19T14:42:35.568Z,2.87
2023-05-19T14:45:03.703Z,2.77
2023-05-19T14:47:31.783Z,2.30
2023-05-19T14:50:01.600Z,1.10
2023-05-19T14:52:29.365Z,2.13
2023-05-19T14:54:57.205Z,1.60
2023-05-19T14:57:25.743Z,3.57
2023-05-19T14:59:53.583Z,1.50
2023-05-19T15:02:21.354Z,3.13
2023-05-19T15:04:49.378Z,1.60
2023-05-19T15:07:18.676Z,2.30
2023-05-19T15:09:46.587Z,1.67
2023-05-19T15:12:14.435Z,3.17
2023-05-19T15:14:42.241Z,2.40
2023-05-19T15:17:10.589Z,1.93
2023-05-19T15:19:38.615Z,2.83
2023-05-19T15:22:06.750Z,4.33
2023-05-19T15:24:36.046Z,6.40
2023-05-19T15:27:04.374Z,2.23
2023-05-19T15:29:32.206Z,4.60
2023-05-19T15:32:00.045Z,1.87
2023-05-19T15:34:27.969Z,2.57
2023-05-19T15:36:55.810Z,3.47
2023-05-19T15:39:23.617Z,2.20
2023-05-19T15:41:52.836Z,1.60
2023-05-19T15:44:20.706Z,2.33
2023-05-19T15:46:48.656Z,1.80
2023-05-19T15:49:18.156Z,3.00
2023-05-19T15:51:46.158Z,3.30
2023-05-19T15:54:14.573Z,4.87
2023-05-19T15:56:42.378Z,3.67
2023-05-19T15:59:11.603Z,2.53
2023-05-19T16:01:40.522Z,1.43
2023-05-19T16:04:08.453Z,1.77
2023-05-19T16:06:36.331Z,1.53
2023-05-19T16:09:04.398Z,3.70
2023-05-19T16:11:32.268Z,1.77
2023-05-19T16:14:00.092Z,2.83
2023-05-19T16:16:29.388Z,7.80
2023-05-19T16:18:57.296Z,1.07
2023-05-19T16:21:25.257Z,1.67
2023-05-19T16:23:53.126Z,1.10
2023-05-19T16:26:22.560Z,2.77
2023-05-19T16:28:50.431Z,2.10
2023-05-19T16:31:18.264Z,1.47
2023-05-19T16:33:47.566Z,3.07
2023-05-19T16:36:15.550Z,4.73
2023-05-19T16:38:43.496Z,2.10
2023-05-19T16:41:12.766Z,2.93
2023-05-19T16:43:40.741Z,2.27
2023-05-19T16:46:09.880Z,2.10
2023-05-19T16:48:37.901Z,2.17
2023-05-19T16:51:07.271Z,1.83
2023-05-19T16:53:35.096Z,3.03
2023-05-19T16:56:02.994Z,1.97
2023-05-19T16:58:31.135Z,3.20
2023-05-19T17:00:59.073Z,7.20
2023-05-19T17:03:27.186Z,6.60
2023-05-19T17:05:57.758Z,12.10
2023-05-19T17:08:26.985Z,10.53
2023-05-19T17:10:54.806Z,5.70
2023-05-19T17:13:22.643Z,12.33
2023-05-19T17:15:52.814Z,4.23
2023-05-19T17:18:20.609Z,3.23
2023-05-19T17:20:48.561Z,2.67
2023-05-19T17:23:16.864Z,1.73
2023-05-19T17:25:46.101Z,3.67
2023-05-19T17:28:13.881Z,2.77
2023-05-19T17:30:42.306Z,4.20
2023-05-19T17:33:10.207Z,3.67
2023-05-19T17:35:38.053Z,1.43
2023-05-19T17:38:05.965Z,3.30
2023-05-19T17:40:34.824Z,2.00
2023-05-19T17:43:04.401Z,1.50
2023-05-19T17:45:32.277Z,2.93
2023-05-19T17:48:00.248Z,1.90
2023-05-19T17:50:28.573Z,2.30
2023-05-19T17:52:57.037Z,3.93
2023-05-19T17:55:29.708Z,1.90
2023-05-19T17:57:58.517Z,2.77
2023-05-19T18:00:28.522Z,1.47
2023-05-19T18:02:57.852Z,1.73
2023-05-19T18:05:26.656Z,11.50
2023-05-19T18:07:55.327Z,2.40
2023-05-19T18:10:24.310Z,1.77
2023-05-19T18:12:52.345Z,1.73
2023-05-19T18:15:20.236Z,1.20
2023-05-19T18:17:49.550Z,2.10
2023-05-19T18:20:17.757Z,1.43
2023-05-19T18:22:45.646Z,2.43
2023-05-19T18:25:13.487Z,1.27
2023-05-19T18:27:43.607Z,1.47
2023-05-19T18:30:12.157Z,1.53
2023-05-19T18:32:39.988Z,2.80
2023-05-19T18:35:10.452Z,3.77
2023-05-19T18:37:38.307Z,1.93
2023-05-19T18:40:07.338Z,2.33
2023-05-19T18:42:35.218Z,5.10
2023-05-19T18:45:03.071Z,3.43
2023-05-19T18:47:30.943Z,2.07
2023-05-19T18:49:58.984Z,2.00
2023-05-19T18:52:29.023Z,1.57
2023-05-19T18:54:57.051Z,2.63
2023-05-19T18:57:25.606Z,4.53
2023-05-19T18:59:53.628Z,1.27
2023-05-19T19:02:21.468Z,1.73
2023-05-19T19:04:49.445Z,1.90
2023-05-19T19:07:17.367Z,1.37
2023-05-19T19:09:46.588Z,1.70
2023-05-19T19:12:14.442Z,2.27
2023-05-19T19:14:42.558Z,1.43
2023-05-19T19:17:10.467Z,1.40
2023-05-19T19:19:38.503Z,1.40
2023-05-19T19:22:06.466Z,2.10
2023-05-19T19:24:34.293Z,2.00
2023-05-19T19:27:03.859Z,3.47
2023-05-19T19:29:32.522Z,2.17
2023-05-19T19:32:00.565Z,4.33
2023-05-19T19:34:28.719Z,3.50
2023-05-19T19:36:56.533Z,2.97
2023-05-19T19:39:24.423Z,3.43
2023-05-19T19:41:52.238Z,5.30
2023-05-19T19:44:22.784Z,2.30
2023-05-19T19:46:50.769Z,2.60
2023-05-19T19:49:18.775Z,2.50
2023-05-19T19:51:46.739Z,3.13
2023-05-19T19:54:14.729Z,4.63
2023-05-19T19:56:42.589Z,4.00
2023-05-19T19:59:11.095Z,3.37
2023-05-19T20:01:40.447Z,1.87
2023-05-19T20:04:08.850Z,3.57
2023-05-19T20:06:37.185Z,2.37
2023-05-19T20:09:05.666Z,1.20
2023-05-19T20:11:33.597Z,2.00
2023-05-19T20:14:01.471Z,3.57
2023-05-19T20:16:29.653Z,1.77
2023-05-19T20:18:59.209Z,3.57
2023-05-19T20:21:27.633Z,3.00
2023-05-19T20:23:55.589Z,3.47
2023-05-19T20:26:23.708Z,3.53
2023-05-19T20:28:51.564Z,1.97
2023-05-19T20:31:21.550Z,2.77
2023-05-19T20:33:49.687Z,3.17
2023-05-19T20:36:19.302Z,2.70
2023-05-19T20:38:47.968Z,2.23
2023-05-19T20:41:16.536Z,1.90
2023-05-19T20:43:45.004Z,1.47
2023-05-19T20:46:13.679Z,2.13
2023-05-19T20:48:41.576Z,2.67
2023-05-19T20:51:09.553Z,6.13
2023-05-19T20:53:38.749Z,3.10
2023-05-19T20:56:07.438Z,2.47
2023-05-19T20:58:35.246Z,5.10
2023-05-19T21:01:03.230Z,2.53
2023-05-19T21:03:32.135Z,3.07
2023-05-19T21:06:00.649Z,2.27
2023-05-19T21:08:28.617Z,2.30
2023-05-19T21:10:57.910Z,2.00
2023-05-19T21:13:25.847Z,5.13
2023-05-19T21:15:53.759Z,1.77
2023-05-19T21:18:21.639Z,3.37
2023-05-19T21:20:49.516Z,4.93
2023-05-19T21:23:17.457Z,4.87
2023-05-19T21:25:45.571Z,3.63
2023-05-19T21:28:14.900Z,4.97
2023-05-19T21:30:43.550Z,2.77
2023-05-19T21:33:11.609Z,2.57
2023-05-19T21:35:39.555Z,3.53
2023-05-19T21:38:22.117Z,4.63
2023-05-19T21:40:51.260Z,2.97
2023-05-19T21:43:21.494Z,4.20
2023-05-19T21:45:49.480Z,4.23
2023-05-19T21:48:17.364Z,4.17
2023-05-19T21:50:45.456Z,2.67
2023-05-19T21:53:13.255Z,5.37
2023-05-19T21:55:41.124Z,2.10
2023-05-19T21:58:08.922Z,3.33
2023-05-19T22:00:38.598Z,2.57
2023-05-19T22:03:07.726Z,3.87
2023-05-19T22:05:38.102Z,2.17
2023-05-19T22:08:06.234Z,4.53
2023-05-19T22:10:34.296Z,5.20
2023-05-19T22:13:02.225Z,2.80
2023-05-19T22:15:30.064Z,5.70
2023-05-19T22:17:59.381Z,1.70
2023-05-19T22:20:27.376Z,4.33
2023-05-19T22:22:55.152Z,2.73
2023-05-19T22:25:22.971Z,4.13
2023-05-19T22:27:50.773Z,4.40
2023-05-19T22:30:18.718Z,4.67
2023-05-19T22:32:46.656Z,4.87
2023-05-19T22:35:15.889Z,2.53
2023-05-19T22:37:43.766Z,7.40
2023-05-19T22:40:12.531Z,2.43
2023-05-19T22:42:40.381Z,2.13
2023-05-19T22:45:09.251Z,2.00
2023-05-19T22:47:37.252Z,2.10
2023-05-19T22:50:05.773Z,2.13
2023-05-19T22:52:35.109Z,3.77
2023-05-19T22:55:03.686Z,2.20
2023-05-19T22:57:32.563Z,4.27
2023-05-19T23:00:00.495Z,2.07
2023-05-19T23:02:28.386Z,4.37
2023-05-19T23:04:56.243Z,4.33
2023-05-19T23:07:24.193Z,3.37
2023-05-19T23:09:53.842Z,3.37
2023-05-19T23:12:21.680Z,4.13
2023-05-19T23:14:49.525Z,2.13
2023-05-19T23:17:17.441Z,4.00
2023-05-19T23:19:45.277Z,4.63
2023-05-19T23:22:13.199Z,4.80
2023-05-19T23:24:41.238Z,4.17
2023-05-19T23:27:10.418Z,1.90
2023-05-19T23:29:38.274Z,4.63
2023-05-19T23:32:06.906Z,3.57
2023-05-19T23:34:34.823Z,2.83
2023-05-19T23:37:02.950Z,1.70
2023-05-19T23:39:30.830Z,2.73
2023-05-19T23:41:58.732Z,3.60
2023-05-19T23:44:28.025Z,2.60
2023-05-19T23:46:56.018Z,3.77
2023-05-19T23:49:23.991Z,3.63
2023-05-19T23:51:52.988Z,2.97
2023-05-19T23:54:20.790Z,3.33
2023-05-19T23:56:48.641Z,3.13
2023-05-19T23:59:16.530Z,2.27
